Time;durP1;ratioP1;P1;durP2;ratioP2;P2;SDS_P1;SDS_P2;PMS_P1;PMS_P2;Temp;Humidity;BMP_temperature;BMP_pressure;BME280_temperature;BME280_humidity;BME280_pressure;Samples;Min_cycle;Max_cycle;Signal;HPM_P1;HPM_P2
2022/10/29 00:00:55;;;;;;;15.32;5.68;;;17.90;99.90;;;;;;5003588;28;20038;-74
2022/10/29 00:03:27;;;;;;;18.42;6.22;;;17.80;99.90;;;;;;5005521;28;20566;-73
2022/10/29 00:06:22;;;;;;;24.75;6.63;;;17.80;99.90;;;;;;5001078;28;20428;-73
2022/10/29 00:08:50;;;;;;;29.88;6.75;;;17.80;99.90;;;;;;4997174;28;20038;-74
2022/10/29 00:11:18;;;;;;;15.90;6.80;;;17.80;99.90;;;;;;5003826;28;20042;-74
2022/10/29 00:13:45;;;;;;;19.10;6.45;;;17.70;99.90;;;;;;5000409;28;20045;-73
2022/10/29 00:16:12;;;;;;;28.20;6.25;;;17.70;99.90;;;;;;5001132;28;20038;-74
2022/10/29 00:18:40;;;;;;;21.40;6.53;;;17.60;99.90;;;;;;4997643;28;20106;-73
2022/10/29 00:21:15;;;;;;;13.80;6.65;;;17.60;99.90;;;;;;4999198;28;20422;-74
2022/10/29 00:23:41;;;;;;;22.30;6.60;;;17.60;99.90;;;;;;5001826;28;20113;-73
2022/10/29 00:26:07;;;;;;;21.20;6.50;;;17.50;99.90;;;;;;5001445;28;20108;-74
2022/10/29 00:28:33;;;;;;;11.15;6.35;;;17.60;99.90;;;;;;5001136;28;20363;-74
2022/10/29 00:31:07;;;;;;;20.23;6.55;;;17.40;99.90;;;;;;4999307;28;20034;-73
2022/10/29 00:33:38;;;;;;;25.08;6.60;;;17.40;99.90;;;;;;4999063;28;20034;-73
2022/10/29 00:36:07;;;;;;;16.42;6.00;;;17.40;99.90;;;;;;4999102;28;20026;-74
2022/10/29 00:38:34;;;;;;;22.60;6.82;;;17.30;99.90;;;;;;4998737;28;20054;-73
2022/10/29 00:41:00;;;;;;;32.75;8.43;;;17.30;99.90;;;;;;4997757;28;20038;-73
2022/10/29 00:43:26;;;;;;;38.70;6.68;;;17.30;99.90;;;;;;5004140;28;20015;-74
2022/10/29 00:46:06;;;;;;;27.17;6.38;;;17.40;99.90;;;;;;5007941;28;20346;-73
2022/10/29 00:48:40;;;;;;;18.40;6.22;;;17.30;99.90;;;;;;5000023;28;20084;-75
2022/10/29 00:51:09;;;;;;;23.20;6.63;;;17.30;99.90;;;;;;4987155;28;20018;-73
2022/10/29 00:53:41;;;;;;;19.80;6.70;;;17.20;99.90;;;;;;5008534;28;20494;-74
2022/10/29 00:56:07;;;;;;;17.02;6.35;;;17.10;99.90;;;;;;4997911;28;20027;-73
2022/10/29 00:58:34;;;;;;;28.20;6.47;;;17.10;99.90;;;;;;5000147;28;20117;-73
2022/10/29 01:01:00;;;;;;;16.75;6.75;;;17.10;99.90;;;;;;5000331;28;20081;-73
2022/10/29 01:03:25;;;;;;;22.73;7.07;;;17.20;99.90;;;;;;5007471;28;20027;-73
2022/10/29 01:05:52;;;;;;;20.35;7.18;;;17.20;99.90;;;;;;5001932;28;20057;-73
2022/10/29 01:08:18;;;;;;;24.35;6.55;;;17.20;99.90;;;;;;5009051;28;20058;-73
2022/10/29 01:10:53;;;;;;;23.17;6.95;;;17.20;99.90;;;;;;5001270;28;20018;-74
2022/10/29 01:13:38;;;;;;;16.25;7.55;;;17.20;99.90;;;;;;5001439;28;20030;-73
2022/10/29 01:16:06;;;;;;;18.88;7.03;;;17.10;99.90;;;;;;5000051;28;20026;-73
2022/10/29 01:18:44;;;;;;;17.35;6.00;;;17.10;99.90;;;;;;5009753;28;20018;-73
2022/10/29 01:21:28;;;;;;;21.75;7.88;;;17.00;99.90;;;;;;4998272;28;20022;-73
2022/10/29 01:24:18;;;;;;;17.77;6.35;;;17.00;99.90;;;;;;5001921;28;20038;-74
2022/10/29 01:27:05;;;;;;;27.30;7.20;;;17.00;99.90;;;;;;5001617;28;20027;-73
2022/10/29 01:30:03;;;;;;;19.88;6.93;;;17.10;99.90;;;;;;4999870;28;20037;-73
2022/10/29 01:32:54;;;;;;;17.35;6.72;;;17.10;99.90;;;;;;5002356;28;20030;-73
2022/10/29 01:35:56;;;;;;;18.45;6.95;;;17.00;99.90;;;;;;5003232;28;20104;-73
2022/10/29 01:38:25;;;;;;;19.30;6.70;;;17.00;99.90;;;;;;5000639;28;20041;-73
2022/10/29 01:41:04;;;;;;;15.63;7.15;;;17.00;99.90;;;;;;4998854;28;20025;-73
2022/10/29 01:43:39;;;;;;;20.00;6.78;;;17.00;99.90;;;;;;5002701;28;20027;-74
2022/10/29 01:46:19;;;;;;;22.33;6.60;;;17.00;99.90;;;;;;5017212;28;20019;-73
2022/10/29 01:48:49;;;;;;;14.73;6.38;;;17.00;99.90;;;;;;4999865;28;20053;-74
2022/10/29 01:51:27;;;;;;;15.57;5.47;;;17.00;99.90;;;;;;5008469;28;20026;-73
2022/10/29 01:53:54;;;;;;;25.67;6.22;;;17.00;99.90;;;;;;5000478;28;20026;-74
2022/10/29 01:56:20;;;;;;;20.10;6.60;;;17.00;99.90;;;;;;5000365;28;20029;-73
2022/10/29 01:58:51;;;;;;;22.02;6.75;;;17.00;99.90;;;;;;5000965;28;20023;-75
2022/10/29 02:01:36;;;;;;;19.48;7.03;;;17.10;99.90;;;;;;5002977;28;20026;-75
2022/10/29 02:04:39;;;;;;;16.65;6.55;;;17.20;99.90;;;;;;5003431;28;20046;-73
2022/10/29 02:07:30;;;;;;;21.50;8.25;;;17.20;99.90;;;;;;5001893;28;20013;-74
2022/10/29 02:10:11;;;;;;;21.38;8.23;;;17.20;99.90;;;;;;4999778;28;20065;-73
2022/10/29 02:12:56;;;;;;;28.48;7.93;;;17.30;99.90;;;;;;5001027;28;20033;-73
2022/10/29 02:15:26;;;;;;;26.58;8.75;;;17.30;99.90;;;;;;4999831;28;20049;-74
2022/10/29 02:17:57;;;;;;;20.42;8.23;;;17.30;99.90;;;;;;5000967;28;20026;-73
2022/10/29 02:20:23;;;;;;;34.13;8.55;;;17.30;99.90;;;;;;5002417;28;20045;-73
2022/10/29 02:22:51;;;;;;;27.00;10.50;;;17.40;99.90;;;;;;5000738;28;20022;-75
2022/10/29 02:25:16;;;;;;;26.25;9.57;;;17.40;99.90;;;;;;5001768;28;20030;-73
2022/10/29 02:27:42;;;;;;;23.85;8.32;;;17.30;99.90;;;;;;5003272;28;20452;-73
2022/10/29 02:30:10;;;;;;;21.33;8.15;;;17.30;99.90;;;;;;5002095;28;20037;-73
2022/10/29 02:32:36;;;;;;;25.58;10.68;;;17.40;99.90;;;;;;5014842;28;20050;-73
2022/10/29 02:35:02;;;;;;;28.60;8.77;;;17.30;99.90;;;;;;5002476;28;20054;-73
2022/10/29 02:37:28;;;;;;;29.92;8.57;;;17.30;99.90;;;;;;5008984;28;20026;-73
2022/10/29 02:39:56;;;;;;;24.63;8.65;;;17.40;99.90;;;;;;5001015;28;20031;-73
2022/10/29 02:42:24;;;;;;;20.10;8.60;;;17.40;99.90;;;;;;5001875;28;20038;-74
2022/10/29 02:44:50;;;;;;;18.85;8.70;;;17.40;99.90;;;;;;5006352;28;20064;-75
2022/10/29 02:47:16;;;;;;;26.45;9.27;;;17.40;99.90;;;;;;5005463;28;20053;-73
2022/10/29 02:49:41;;;;;;;23.15;8.43;;;17.40;99.90;;;;;;5002661;28;20108;-73
2022/10/29 02:52:09;;;;;;;23.23;7.63;;;17.40;99.90;;;;;;5003534;28;20521;-73
2022/10/29 02:54:35;;;;;;;20.45;8.30;;;17.40;99.90;;;;;;5005579;28;20033;-73
2022/10/29 02:57:01;;;;;;;17.42;7.97;;;17.40;99.90;;;;;;5004571;28;20026;-73
2022/10/29 02:59:29;;;;;;;21.00;7.63;;;17.40;99.90;;;;;;5003615;28;20057;-73
2022/10/29 03:01:54;;;;;;;28.52;7.60;;;17.40;99.90;;;;;;5004665;28;20098;-75
2022/10/29 03:04:20;;;;;;;16.10;7.53;;;17.50;99.90;;;;;;5005178;28;20490;-73
2022/10/29 03:06:45;;;;;;;23.15;8.00;;;17.50;99.90;;;;;;5005202;28;20026;-74
2022/10/29 03:09:11;;;;;;;25.77;7.78;;;17.40;99.90;;;;;;5003426;28;20101;-75
2022/10/29 03:11:37;;;;;;;16.65;7.25;;;17.40;99.90;;;;;;5002553;28;20022;-74
2022/10/29 03:14:02;;;;;;;30.15;7.75;;;17.30;99.90;;;;;;5000006;28;20038;-73
2022/10/29 03:16:28;;;;;;;16.35;8.60;;;17.20;99.90;;;;;;5016517;28;20046;-73
2022/10/29 03:18:56;;;;;;;18.23;8.65;;;17.10;99.90;;;;;;5005040;28;20076;-73
2022/10/29 03:21:21;;;;;;;24.95;8.75;;;17.00;99.90;;;;;;5007915;28;20026;-73
2022/10/29 03:23:47;;;;;;;21.30;8.82;;;17.00;99.90;;;;;;5004365;28;20444;-74
2022/10/29 03:26:12;;;;;;;16.73;8.38;;;17.00;99.90;;;;;;5001342;28;20579;-74
2022/10/29 03:28:38;;;;;;;19.35;8.45;;;16.90;99.90;;;;;;5004762;28;20515;-73
2022/10/29 03:31:04;;;;;;;24.77;8.40;;;16.90;99.90;;;;;;5002292;28;20029;-73
2022/10/29 03:33:29;;;;;;;20.35;8.65;;;16.90;99.90;;;;;;5001751;28;20037;-73
2022/10/29 03:36:05;;;;;;;18.05;8.80;;;16.80;99.90;;;;;;5009093;28;20110;-73
2022/10/29 03:38:34;;;;;;;33.28;9.35;;;16.80;99.90;;;;;;5001551;28;20440;-73
2022/10/29 03:41:00;;;;;;;22.08;9.80;;;16.70;99.90;;;;;;5000823;28;20030;-73
2022/10/29 03:43:25;;;;;;;25.65;8.90;;;16.70;99.90;;;;;;5004897;28;20045;-74
2022/10/29 03:45:52;;;;;;;26.02;8.77;;;16.70;99.90;;;;;;4998785;28;20026;-73
2022/10/29 03:48:19;;;;;;;21.88;8.63;;;16.60;99.90;;;;;;5001923;28;20084;-74
2022/10/29 03:50:52;;;;;;;30.02;9.82;;;16.70;99.90;;;;;;5000965;28;20105;-74
2022/10/29 03:53:20;;;;;;;32.83;8.75;;;16.70;99.90;;;;;;4999774;28;20037;-75
2022/10/29 03:55:46;;;;;;;22.48;9.50;;;16.70;99.90;;;;;;5006335;28;20034;-73
2022/10/29 03:58:11;;;;;;;24.15;8.88;;;16.70;99.90;;;;;;4998821;28;20455;-73
2022/10/29 04:00:39;;;;;;;28.85;8.68;;;16.70;99.90;;;;;;5001958;28;20022;-73
2022/10/29 04:03:07;;;;;;;26.90;9.95;;;16.70;99.90;;;;;;5002616;28;20061;-75
2022/10/29 04:05:33;;;;;;;36.28;9.85;;;16.70;99.90;;;;;;5001090;28;20022;-74
2022/10/29 04:07:58;;;;;;;18.63;8.57;;;16.70;99.90;;;;;;5000207;28;20030;-73
2022/10/29 04:10:25;;;;;;;26.42;8.60;;;16.70;99.90;;;;;;4998653;28;20034;-73
2022/10/29 04:12:51;;;;;;;22.40;8.52;;;16.70;99.90;;;;;;5003174;28;20018;-74
2022/10/29 04:15:17;;;;;;;21.08;8.43;;;16.70;99.90;;;;;;5002267;28;20041;-73
2022/10/29 04:17:42;;;;;;;20.05;8.35;;;16.70;99.90;;;;;;5004060;28;20352;-73
2022/10/29 04:20:08;;;;;;;31.42;9.30;;;16.60;99.90;;;;;;5003460;28;20083;-75
2022/10/29 04:22:34;;;;;;;21.02;9.00;;;16.60;99.90;;;;;;4998727;28;20038;-74
2022/10/29 04:24:59;;;;;;;29.13;9.27;;;16.60;99.90;;;;;;5003239;28;20041;-74
2022/10/29 04:27:27;;;;;;;29.13;9.82;;;16.60;99.90;;;;;;5000382;28;20606;-74
2022/10/29 04:29:55;;;;;;;27.98;10.00;;;16.70;99.90;;;;;;5005605;28;20034;-73
2022/10/29 04:32:25;;;;;;;31.33;9.13;;;16.70;99.90;;;;;;5003994;28;20099;-73
2022/10/29 04:34:51;;;;;;;31.45;9.38;;;16.70;99.90;;;;;;5000381;28;20438;-74
2022/10/29 04:37:16;;;;;;;29.48;11.05;;;16.70;99.90;;;;;;5005691;28;20029;-73
2022/10/29 04:39:42;;;;;;;25.90;9.23;;;16.60;99.90;;;;;;5004155;28;20119;-73
2022/10/29 04:42:07;;;;;;;22.85;9.63;;;16.60;99.90;;;;;;5015031;28;20050;-74
2022/10/29 04:44:33;;;;;;;28.13;9.02;;;16.60;99.90;;;;;;5001517;28;20022;-74
2022/10/29 04:46:59;;;;;;;24.77;8.02;;;16.60;99.90;;;;;;5000809;28;20117;-71
2022/10/29 04:49:26;;;;;;;28.55;10.15;;;16.60;99.90;;;;;;5000906;28;20034;-73
2022/10/29 04:51:52;;;;;;;28.27;9.18;;;16.50;99.90;;;;;;5004519;28;20402;-74
2022/10/29 04:54:18;;;;;;;22.10;9.48;;;16.50;99.90;;;;;;5003753;28;20025;-74
2022/10/29 04:56:43;;;;;;;24.52;9.73;;;16.60;99.90;;;;;;4998708;28;20022;-73
2022/10/29 04:59:09;;;;;;;37.55;11.38;;;16.50;99.90;;;;;;5000646;28;20042;-72
2022/10/29 05:01:37;;;;;;;27.85;9.90;;;16.50;99.90;;;;;;5002089;28;20073;-74
2022/10/29 05:04:05;;;;;;;30.25;9.77;;;16.50;99.90;;;;;;5000373;28;20116;-74
2022/10/29 05:06:33;;;;;;;25.52;9.25;;;16.50;99.90;;;;;;5002051;28;20779;-74
2022/10/29 05:08:59;;;;;;;25.52;9.40;;;16.40;99.90;;;;;;4999710;28;20042;-75
2022/10/29 05:11:24;;;;;;;35.03;9.95;;;16.40;99.90;;;;;;4998147;28;20363;-74
2022/10/29 05:13:50;;;;;;;35.40;10.68;;;16.40;99.90;;;;;;4997539;28;20856;-72
2022/10/29 05:16:15;;;;;;;42.15;17.85;;;16.40;99.90;;;;;;5000247;28;20022;-74
2022/10/29 05:18:41;;;;;;;33.88;10.73;;;16.40;99.90;;;;;;5001284;28;20471;-74
2022/10/29 05:21:06;;;;;;;30.73;9.20;;;16.40;99.90;;;;;;5010112;28;20087;-74
2022/10/29 05:23:32;;;;;;;27.52;10.73;;;16.40;99.90;;;;;;5002693;28;20026;-73
2022/10/29 05:25:58;;;;;;;28.20;10.50;;;16.40;99.90;;;;;;5003796;28;20030;-74
2022/10/29 05:28:26;;;;;;;24.17;9.82;;;16.40;99.90;;;;;;5001183;28;20038;-75
2022/10/29 05:30:54;;;;;;;25.45;10.02;;;16.50;99.90;;;;;;4998882;28;20030;-74
2022/10/29 05:33:23;;;;;;;29.90;9.48;;;16.50;99.90;;;;;;5003948;28;20125;-75
2022/10/29 05:35:50;;;;;;;26.85;8.65;;;16.50;99.90;;;;;;4998434;28;20034;-74
2022/10/29 05:38:16;;;;;;;19.83;9.68;;;16.50;99.90;;;;;;5002709;28;20132;-74
2022/10/29 05:40:43;;;;;;;202.73;75.78;;;16.50;99.90;;;;;;5000659;28;20091;-75
2022/10/29 05:43:10;;;;;;;36.70;12.85;;;16.50;99.90;;;;;;5006800;28;20041;-73
2022/10/29 05:45:38;;;;;;;32.53;10.13;;;16.50;99.90;;;;;;5000692;28;20014;-74
2022/10/29 05:48:07;;;;;;;19.85;8.77;;;16.50;99.90;;;;;;5008172;28;20026;-74
2022/10/29 05:50:33;;;;;;;26.40;9.45;;;16.50;99.90;;;;;;4998234;28;20053;-74
2022/10/29 05:53:04;;;;;;;29.58;9.38;;;16.50;99.90;;;;;;5001983;28;20133;-74
2022/10/29 05:55:31;;;;;;;19.85;9.05;;;16.50;99.90;;;;;;4997788;28;20022;-74
2022/10/29 05:58:02;;;;;;;20.98;9.45;;;16.50;99.90;;;;;;5003033;28;20034;-74
2022/10/29 06:00:30;;;;;;;25.70;8.88;;;16.50;99.90;;;;;;5016197;28;20116;-75
2022/10/29 06:02:56;;;;;;;30.15;9.02;;;16.50;99.90;;;;;;5000148;28;20057;-74
2022/10/29 06:05:22;;;;;;;22.73;9.07;;;16.50;99.90;;;;;;4999473;28;20471;-72
2022/10/29 06:07:58;;;;;;;27.52;9.55;;;16.50;99.90;;;;;;5004962;28;20025;-74
2022/10/29 06:10:28;;;;;;;23.63;8.57;;;16.50;99.90;;;;;;5000505;28;20023;-74
2022/10/29 06:12:53;;;;;;;24.50;8.93;;;16.50;99.90;;;;;;5005362;28;20021;-73
2022/10/29 06:15:19;;;;;;;19.27;8.40;;;16.40;99.90;;;;;;5003554;28;20101;-74
2022/10/29 06:17:48;;;;;;;24.42;8.25;;;16.40;99.90;;;;;;5006603;28;20022;-73
2022/10/29 06:20:16;;;;;;;19.98;9.13;;;16.40;99.90;;;;;;5004676;28;20026;-75
2022/10/29 06:22:41;;;;;;;26.05;8.38;;;16.30;99.90;;;;;;5021081;28;20041;-74
2022/10/29 06:25:08;;;;;;;24.05;8.88;;;16.30;99.90;;;;;;5004165;28;20023;-74
2022/10/29 06:27:34;;;;;;;23.33;8.02;;;16.30;99.90;;;;;;5021861;28;20061;-74
2022/10/29 06:30:00;;;;;;;23.02;9.85;;;16.30;99.90;;;;;;5008450;28;20057;-74
2022/10/29 06:32:26;;;;;;;27.80;9.20;;;16.30;99.90;;;;;;5000903;28;20022;-74
2022/10/29 06:34:51;;;;;;;29.00;9.15;;;16.30;99.90;;;;;;5007668;28;20113;-74
2022/10/29 06:37:17;;;;;;;20.02;9.35;;;16.30;99.90;;;;;;5006357;28;20026;-74
2022/10/29 06:39:43;;;;;;;25.27;9.10;;;16.30;99.90;;;;;;5006003;28;20044;-74
2022/10/29 06:42:08;;;;;;;22.98;9.10;;;16.30;99.90;;;;;;5002864;28;20052;-73
2022/10/29 06:44:34;;;;;;;24.20;9.00;;;16.30;99.90;;;;;;5003598;28;20037;-74
2022/10/29 06:47:00;;;;;;;29.48;9.82;;;16.30;99.90;;;;;;5009673;28;20017;-74
2022/10/29 06:49:27;;;;;;;23.65;9.10;;;16.30;99.90;;;;;;5008462;28;20026;-74
2022/10/29 06:51:55;;;;;;;21.83;9.18;;;16.30;99.90;;;;;;5003899;28;20040;-74
2022/10/29 06:54:21;;;;;;;19.27;9.45;;;16.40;99.90;;;;;;5011457;28;20041;-74
2022/10/29 06:56:47;;;;;;;32.35;9.70;;;16.50;99.90;;;;;;5005783;28;20034;-74
2022/10/29 06:59:12;;;;;;;31.35;8.50;;;16.50;99.90;;;;;;5005003;28;20585;-75
2022/10/29 07:01:38;;;;;;;26.50;10.32;;;16.50;99.90;;;;;;5003444;28;20030;-74
2022/10/29 07:04:04;;;;;;;28.55;8.68;;;16.60;99.90;;;;;;5005814;28;20447;-74
2022/10/29 07:06:33;;;;;;;29.75;8.90;;;16.60;99.90;;;;;;5007512;28;20028;-73
2022/10/29 07:09:02;;;;;;;30.50;9.68;;;16.70;99.90;;;;;;5018245;28;20120;-76
2022/10/29 07:11:27;;;;;;;31.67;9.75;;;16.80;99.90;;;;;;5011243;28;20022;-73
2022/10/29 07:13:55;;;;;;;27.88;9.18;;;16.80;99.90;;;;;;5005311;28;20040;-74
2022/10/29 07:16:21;;;;;;;28.98;10.00;;;16.80;99.90;;;;;;5003499;28;20530;-74
2022/10/29 07:18:49;;;;;;;25.45;9.45;;;16.90;99.90;;;;;;5001760;28;20022;-74
2022/10/29 07:21:14;;;;;;;25.25;9.55;;;16.90;99.90;;;;;;5004091;28;20026;-74
2022/10/29 07:23:40;;;;;;;23.33;9.80;;;17.00;99.90;;;;;;5003910;28;20478;-74
2022/10/29 07:26:06;;;;;;;23.98;8.73;;;17.00;99.90;;;;;;5006325;28;20018;-74
2022/10/29 07:28:31;;;;;;;23.70;9.32;;;17.00;99.90;;;;;;5000142;28;20347;-74
2022/10/29 07:31:01;;;;;;;18.77;8.82;;;17.10;99.90;;;;;;5004554;28;20030;-74
2022/10/29 07:33:29;;;;;;;19.83;9.25;;;17.10;99.90;;;;;;5005069;28;20033;-74
2022/10/29 07:35:58;;;;;;;21.40;8.70;;;17.20;99.90;;;;;;5007074;28;20034;-76
2022/10/29 07:38:26;;;;;;;25.17;9.57;;;17.20;99.90;;;;;;5003257;28;20030;-76
2022/10/29 07:40:54;;;;;;;30.33;9.68;;;17.20;99.90;;;;;;5003404;28;20041;-74
2022/10/29 07:43:24;;;;;;;24.45;9.02;;;17.30;99.90;;;;;;5006843;28;20040;-74
2022/10/29 07:45:51;;;;;;;25.90;9.18;;;17.30;99.90;;;;;;5004427;28;20100;-74
2022/10/29 07:48:20;;;;;;;20.27;8.70;;;17.40;99.90;;;;;;5008021;28;20037;-74
2022/10/29 07:50:47;;;;;;;28.15;10.15;;;17.50;99.90;;;;;;5001630;28;20022;-73
2022/10/29 07:53:14;;;;;;;28.00;9.10;;;17.60;99.90;;;;;;5003818;28;20030;-74
2022/10/29 07:55:40;;;;;;;20.20;8.55;;;17.60;99.90;;;;;;5002513;28;20112;-74
2022/10/29 07:58:09;;;;;;;28.75;8.88;;;17.60;99.90;;;;;;5003586;28;20121;-74
2022/10/29 08:00:37;;;;;;;30.95;8.75;;;17.70;99.90;;;;;;5003108;28;20357;-74
2022/10/29 08:03:04;;;;;;;24.63;8.40;;;17.80;99.90;;;;;;5004759;28;20103;-76
2022/10/29 08:05:32;;;;;;;21.42;8.90;;;17.80;99.90;;;;;;5005866;28;20018;-75
2022/10/29 08:07:58;;;;;;;25.10;8.15;;;17.80;99.90;;;;;;5009490;28;20022;-74
2022/10/29 08:10:25;;;;;;;24.30;8.38;;;17.90;99.90;;;;;;5006551;28;20104;-74
2022/10/29 08:12:57;;;;;;;34.30;8.80;;;17.90;99.90;;;;;;5006168;28;20026;-74
2022/10/29 08:15:27;;;;;;;21.40;8.43;;;18.00;99.90;;;;;;5001641;28;20455;-75
2022/10/29 08:17:52;;;;;;;346.35;145.38;;;18.10;99.90;;;;;;5002226;28;20030;-72
2022/10/29 08:20:19;;;;;;;345.33;142.20;;;18.20;99.90;;;;;;4999144;28;20034;-74
2022/10/29 08:22:45;;;;;;;35.42;11.32;;;18.20;99.90;;;;;;4999997;28;20117;-74
2022/10/29 08:25:12;;;;;;;23.70;8.32;;;18.30;99.90;;;;;;4990156;28;21218;-75
2022/10/29 08:27:40;;;;;;;21.05;9.32;;;18.40;99.90;;;;;;5004739;28;20431;-73
2022/10/29 08:30:08;;;;;;;23.55;9.00;;;18.40;99.90;;;;;;5004383;28;20030;-73
2022/10/29 08:32:43;;;;;;;19.95;7.30;;;18.60;99.90;;;;;;5002166;28;20022;-73
2022/10/29 08:35:08;;;;;;;21.88;8.52;;;18.70;99.90;;;;;;5005658;28;20322;-74
2022/10/29 08:37:43;;;;;;;24.10;8.52;;;18.80;99.90;;;;;;5007729;28;20039;-74
2022/10/29 08:40:24;;;;;;;21.38;7.88;;;18.80;99.90;;;;;;4997442;28;20026;-75
2022/10/29 08:43:37;;;;;;;27.75;8.65;;;18.80;99.90;;;;;;4998746;28;20435;-74
2022/10/29 08:46:22;;;;;;;22.13;9.13;;;18.80;99.90;;;;;;4981366;28;20046;-74
2022/10/29 08:48:54;;;;;;;24.40;10.15;;;18.90;99.90;;;;;;5004444;28;20030;-73
2022/10/29 08:51:40;;;;;;;20.93;9.20;;;18.90;99.90;;;;;;5003126;28;20064;-76
2022/10/29 08:54:13;;;;;;;21.55;9.07;;;19.00;99.90;;;;;;4999810;28;20117;-74
2022/10/29 08:56:49;;;;;;;27.27;9.35;;;19.10;99.90;;;;;;5002068;28;20030;-74
2022/10/29 08:59:20;;;;;;;28.55;8.73;;;19.20;99.90;;;;;;5002216;28;20026;-74
2022/10/29 09:01:46;;;;;;;23.02;9.60;;;19.30;99.90;;;;;;5000764;28;20018;-74
2022/10/29 09:04:28;;;;;;;28.20;9.65;;;19.30;99.90;;;;;;4999646;28;20092;-73
2022/10/29 09:07:15;;;;;;;361.40;156.57;;;19.40;99.90;;;;;;5016050;28;20432;-72
2022/10/29 09:09:44;;;;;;;29.65;11.45;;;19.50;99.90;;;;;;5001167;28;20034;-73
2022/10/29 09:12:41;;;;;;;23.17;8.40;;;19.60;99.90;;;;;;5000910;28;20034;-72
2022/10/29 09:15:32;;;;;;;29.17;8.57;;;19.50;99.90;;;;;;5001687;28;20036;-76
2022/10/29 09:18:09;;;;;;;29.90;9.23;;;19.70;99.90;;;;;;4999067;28;20030;-75
2022/10/29 09:21:05;;;;;;;21.13;8.50;;;19.80;99.90;;;;;;5004021;28;20018;-73
2022/10/29 09:24:12;;;;;;;24.95;9.05;;;19.90;99.90;;;;;;5019846;28;20101;-75
2022/10/29 09:26:46;;;;;;;24.95;7.78;;;20.00;99.90;;;;;;4997401;28;20033;-72
2022/10/29 09:29:14;;;;;;;27.35;8.40;;;20.30;99.90;;;;;;5003134;28;20022;-73
2022/10/29 09:31:45;;;;;;;25.85;9.32;;;20.40;99.90;;;;;;5003734;28;20109;-72
2022/10/29 09:34:27;;;;;;;26.75;9.15;;;20.60;99.90;;;;;;4998527;28;20821;-73
2022/10/29 09:36:54;;;;;;;39.60;13.40;;;20.80;99.90;;;;;;4999498;28;20026;-73
2022/10/29 09:39:39;;;;;;;134.77;49.05;;;21.00;99.90;;;;;;4993404;28;20515;-72
2022/10/29 09:42:25;;;;;;;193.80;75.50;;;21.30;99.90;;;;;;4995895;28;20031;-71
2022/10/29 09:45:01;;;;;;;33.22;9.18;;;21.70;99.90;;;;;;4997002;28;20030;-73
2022/10/29 09:47:32;;;;;;;23.10;7.68;;;22.00;99.90;;;;;;5005393;28;20022;-73
2022/10/29 09:50:21;;;;;;;23.52;8.40;;;22.10;99.90;;;;;;5007287;28;20080;-74
2022/10/29 09:52:48;;;;;;;27.90;7.72;;;22.10;99.90;;;;;;5004631;28;20049;-75
2022/10/29 09:55:22;;;;;;;26.45;8.77;;;22.10;99.90;;;;;;5004565;28;20525;-73
2022/10/29 09:57:48;;;;;;;23.13;7.50;;;22.00;99.90;;;;;;5006734;28;20537;-73
2022/10/29 10:00:23;;;;;;;19.90;7.70;;;22.10;99.90;;;;;;5003220;28;20113;-73
2022/10/29 10:02:55;;;;;;;23.25;7.13;;;22.10;99.90;;;;;;5008235;28;20023;-73
2022/10/29 10:05:30;;;;;;;18.38;7.10;;;22.20;99.90;;;;;;5008521;28;20022;-73
2022/10/29 10:08:11;;;;;;;22.52;7.28;;;22.20;99.90;;;;;;5005551;28;20096;-73
2022/10/29 10:10:50;;;;;;;26.08;8.02;;;22.50;99.90;;;;;;5030742;28;20067;-73
2022/10/29 10:13:16;;;;;;;22.40;6.85;;;22.70;99.90;;;;;;5006684;28;20105;-73
2022/10/29 10:15:50;;;;;;;18.40;7.78;;;23.00;99.90;;;;;;5008459;28;20101;-72
2022/10/29 10:18:45;;;;;;;32.38;7.43;;;23.30;99.90;;;;;;5009371;28;20041;-73
2022/10/29 10:21:13;;;;;;;23.42;7.55;;;23.50;99.90;;;;;;5001963;28;20046;-73
2022/10/29 10:23:42;;;;;;;21.58;7.13;;;23.50;99.90;;;;;;5005598;28;20030;-73
2022/10/29 10:26:43;;;;;;;13.65;6.03;;;23.70;99.90;;;;;;5006839;28;20045;-73
2022/10/29 10:29:16;;;;;;;19.73;6.03;;;23.70;99.90;;;;;;5007624;28;20040;-73
2022/10/29 10:31:47;;;;;;;27.83;6.10;;;23.70;99.90;;;;;;5005236;28;20040;-73
2022/10/29 10:34:18;;;;;;;20.70;7.35;;;24.20;99.90;;;;;;5009255;28;20079;-73
2022/10/29 10:36:53;;;;;;;16.20;6.47;;;24.50;99.40;;;;;;5005202;28;20101;-73
2022/10/29 10:39:22;;;;;;;21.10;6.88;;;24.40;98.90;;;;;;5012775;28;20025;-75
2022/10/29 10:41:49;;;;;;;17.70;6.53;;;24.10;99.20;;;;;;5007807;28;20045;-74
2022/10/29 10:44:15;;;;;;;16.13;6.00;;;24.00;99.90;;;;;;5005655;28;20455;-73
2022/10/29 10:46:45;;;;;;;17.65;5.95;;;24.20;99.90;;;;;;5005155;28;20027;-74
2022/10/29 10:49:10;;;;;;;30.20;6.35;;;24.30;99.00;;;;;;5007809;28;20022;-73
2022/10/29 10:51:41;;;;;;;20.98;6.70;;;24.50;98.90;;;;;;5006666;28;20037;-73
2022/10/29 10:54:30;;;;;;;22.67;6.70;;;24.60;98.10;;;;;;5008454;28;20038;-73
2022/10/29 10:57:24;;;;;;;20.80;6.50;;;24.50;98.30;;;;;;5002955;28;20480;-73
2022/10/29 11:00:11;;;;;;;26.45;6.65;;;24.50;98.40;;;;;;5005213;28;20030;-73
2022/10/29 11:02:56;;;;;;;26.50;6.32;;;24.40;98.60;;;;;;5000057;28;20040;-73
2022/10/29 11:05:31;;;;;;;19.17;6.00;;;24.50;98.60;;;;;;5001344;28;20026;-73
2022/10/29 11:08:05;;;;;;;16.35;6.28;;;24.70;97.90;;;;;;5009854;28;20040;-74
2022/10/29 11:10:46;;;;;;;21.17;5.75;;;24.80;97.70;;;;;;4999753;28;20732;-73
2022/10/29 11:13:20;;;;;;;19.08;6.75;;;25.10;97.40;;;;;;5007773;28;20030;-75
2022/10/29 11:16:11;;;;;;;24.90;6.40;;;25.40;95.70;;;;;;5004923;28;20019;-74
2022/10/29 11:18:47;;;;;;;24.08;6.80;;;25.40;94.80;;;;;;5006919;28;20448;-73
2022/10/29 11:21:18;;;;;;;27.25;6.15;;;25.40;95.00;;;;;;5005957;28;20072;-74
2022/10/29 11:23:52;;;;;;;17.10;6.65;;;25.60;94.60;;;;;;5006620;28;20022;-75
2022/10/29 11:26:33;;;;;;;26.05;6.78;;;25.60;94.10;;;;;;5000503;28;20040;-74
2022/10/29 11:29:24;;;;;;;19.58;6.80;;;25.60;93.60;;;;;;5007994;28;20129;-74
2022/10/29 11:31:59;;;;;;;25.70;6.68;;;25.60;93.50;;;;;;5013675;28;20666;-73
2022/10/29 11:34:39;;;;;;;14.88;6.28;;;25.60;93.50;;;;;;5000759;28;20019;-72
2022/10/29 11:37:12;;;;;;;23.65;7.43;;;25.90;93.20;;;;;;5006952;28;20030;-72
2022/10/29 11:40:02;;;;;;;22.38;5.72;;;25.90;92.40;;;;;;5000021;28;20097;-74
2022/10/29 11:42:28;;;;;;;16.30;6.35;;;26.00;92.60;;;;;;5002493;28;20030;-75
2022/10/29 11:44:56;;;;;;;22.33;6.40;;;25.90;92.00;;;;;;5002663;28;20034;-73
2022/10/29 11:47:43;;;;;;;22.13;6.50;;;25.60;92.50;;;;;;5001601;28;20018;-73
2022/10/29 11:50:21;;;;;;;20.40;6.15;;;25.70;92.60;;;;;;5003012;28;20038;-74
2022/10/29 11:53:37;;;;;;;22.98;6.68;;;26.00;92.30;;;;;;5000897;28;20050;-73
2022/10/29 11:56:20;;;;;;;22.52;6.80;;;26.40;92.10;;;;;;4973911;28;20038;-73
2022/10/29 11:59:06;;;;;;;21.45;6.57;;;26.60;90.90;;;;;;5000283;28;20030;-75
2022/10/29 12:01:43;;;;;;;29.33;8.20;;;26.80;90.70;;;;;;5001782;28;20053;-73
2022/10/29 12:04:40;;;;;;;26.08;8.13;;;27.10;90.30;;;;;;5003249;28;20038;-73
2022/10/29 12:07:51;;;;;;;20.88;6.90;;;27.30;88.60;;;;;;4987602;28;20513;-73
2022/10/29 12:10:44;;;;;;;28.15;8.23;;;26.80;89.30;;;;;;5009398;28;20042;-73
2022/10/29 12:13:31;;;;;;;31.40;7.68;;;26.50;90.20;;;;;;5007483;28;20026;-73
2022/10/29 12:16:23;;;;;;;23.52;6.75;;;26.30;90.80;;;;;;5003209;28;20026;-73
2022/10/29 12:18:55;;;;;;;22.02;7.43;;;26.30;91.20;;;;;;5002844;28;20029;-73
2022/10/29 12:21:41;;;;;;;29.70;7.20;;;26.40;91.10;;;;;;5001345;28;20045;-73
2022/10/29 12:24:35;;;;;;;28.88;7.43;;;26.50;91.20;;;;;;5001351;28;20691;-73
2022/10/29 12:27:09;;;;;;;20.05;7.53;;;26.60;91.10;;;;;;5001128;28;20120;-73
2022/10/29 12:29:46;;;;;;;22.05;6.82;;;26.90;91.00;;;;;;4999528;28;20120;-73
2022/10/29 12:32:26;;;;;;;18.73;7.43;;;27.20;90.50;;;;;;5001096;28;20038;-73
2022/10/29 12:35:05;;;;;;;24.98;7.30;;;27.40;89.40;;;;;;5000844;28;20022;-73
2022/10/29 12:37:50;;;;;;;21.13;5.90;;;27.50;89.10;;;;;;5006444;28;20034;-74
2022/10/29 12:40:22;;;;;;;21.05;7.22;;;27.30;89.50;;;;;;5001726;28;20037;-74
2022/10/29 12:42:49;;;;;;;35.08;7.68;;;27.30;89.30;;;;;;5007107;28;20033;-74
2022/10/29 12:45:41;;;;;;;22.27;6.53;;;27.30;89.50;;;;;;5003477;28;20034;-74
2022/10/29 12:48:29;;;;;;;24.67;6.90;;;27.40;87.90;;;;;;5001263;28;20042;-73
2022/10/29 12:51:16;;;;;;;19.13;6.22;;;27.50;86.70;;;;;;5000988;28;20053;-74
2022/10/29 12:53:42;;;;;;;25.38;6.10;;;27.60;87.00;;;;;;4999589;28;20057;-74
2022/10/29 12:56:10;;;;;;;13.68;6.50;;;27.70;85.60;;;;;;4999693;28;20519;-74
2022/10/29 12:58:47;;;;;;;25.95;7.30;;;28.00;84.50;;;;;;5001826;28;20030;-74
2022/10/29 13:01:25;;;;;;;15.98;5.90;;;28.50;82.90;;;;;;5004000;28;20081;-73